sensor_id;sensor_type;location;lat;lon;timestamp;P1;durP1;ratioP1;P2;durP2;ratioP2
22973;SDS011;11653;50.848;4.584;2024-02-21T00:00:08;28.70;;;10.90;;
22973;SDS011;11653;50.848;4.584;2024-02-21T00:02:36;25.73;;;11.30;;
22973;SDS011;11653;50.848;4.584;2024-02-21T00:05:02;27.90;;;11.50;;
22973;SDS011;11653;50.848;4.584;2024-02-21T00:07:28;25.30;;;10.63;;
22973;SDS011;11653;50.848;4.584;2024-02-21T00:09:53;28.50;;;10.60;;
22973;SDS011;11653;50.848;4.584;2024-02-21T00:12:19;27.47;;;10.73;;
22973;SDS011;11653;50.848;4.584;2024-02-21T00:14:45;32.43;;;11.37;;
22973;SDS011;11653;50.848;4.584;2024-02-21T00:17:11;24.47;;;10.80;;
22973;SDS011;11653;50.848;4.584;2024-02-21T00:19:36;29.10;;;11.90;;
22973;SDS011;11653;50.848;4.584;2024-02-21T00:22:02;27.63;;;11.43;;
22973;SDS011;11653;50.848;4.584;2024-02-21T00:24:27;25.73;;;11.27;;
22973;SDS011;11653;50.848;4.584;2024-02-21T00:26:53;30.03;;;11.53;;
22973;SDS011;11653;50.848;4.584;2024-02-21T00:29:19;27.07;;;12.00;;
22973;SDS011;11653;50.848;4.584;2024-02-21T00:31:45;31.33;;;11.03;;
22973;SDS011;11653;50.848;4.584;2024-02-21T00:34:10;32.70;;;12.17;;
22973;SDS011;11653;50.848;4.584;2024-02-21T00:36:37;31.90;;;12.30;;
22973;SDS011;11653;50.848;4.584;2024-02-21T00:39:03;29.17;;;11.77;;
22973;SDS011;11653;50.848;4.584;2024-02-21T00:41:29;30.67;;;13.97;;
22973;SDS011;11653;50.848;4.584;2024-02-21T00:43:55;29.43;;;12.77;;
22973;SDS011;11653;50.848;4.584;2024-02-21T00:46:20;31.33;;;13.47;;
22973;SDS011;11653;50.848;4.584;2024-02-21T00:48:46;29.10;;;12.23;;
22973;SDS011;11653;50.848;4.584;2024-02-21T00:51:11;25.90;;;12.90;;
22973;SDS011;11653;50.848;4.584;2024-02-21T00:53:37;39.93;;;13.90;;
22973;SDS011;11653;50.848;4.584;2024-02-21T00:56:04;32.10;;;12.93;;
22973;SDS011;11653;50.848;4.584;2024-02-21T00:58:30;30.40;;;12.30;;
22973;SDS011;11653;50.848;4.584;2024-02-21T01:00:56;35.17;;;13.90;;
22973;SDS011;11653;50.848;4.584;2024-02-21T01:03:22;31.67;;;13.23;;
22973;SDS011;11653;50.848;4.584;2024-02-21T01:05:47;30.80;;;12.50;;
22973;SDS011;11653;50.848;4.584;2024-02-21T01:08:13;25.53;;;13.03;;
22973;SDS011;11653;50.848;4.584;2024-02-21T01:10:38;30.60;;;12.83;;
22973;SDS011;11653;50.848;4.584;2024-02-21T01:13:04;36.03;;;12.77;;
22973;SDS011;11653;50.848;4.584;2024-02-21T01:15:30;28.53;;;12.57;;
22973;SDS011;11653;50.848;4.584;2024-02-21T01:17:56;29.00;;;12.30;;
22973;SDS011;11653;50.848;4.584;2024-02-21T01:20:22;28.70;;;11.00;;
22973;SDS011;11653;50.848;4.584;2024-02-21T01:22:47;30.37;;;12.87;;
22973;SDS011;11653;50.848;4.584;2024-02-21T01:25:13;35.33;;;12.30;;
22973;SDS011;11653;50.848;4.584;2024-02-21T01:27:38;27.30;;;12.43;;
22973;SDS011;11653;50.848;4.584;2024-02-21T01:30:04;37.37;;;13.03;;
22973;SDS011;11653;50.848;4.584;2024-02-21T01:32:31;29.40;;;12.43;;
22973;SDS011;11653;50.848;4.584;2024-02-21T01:34:56;25.47;;;11.67;;
22973;SDS011;11653;50.848;4.584;2024-02-21T01:37:22;24.93;;;12.00;;
22973;SDS011;11653;50.848;4.584;2024-02-21T01:39:48;28.00;;;11.80;;
22973;SDS011;11653;50.848;4.584;2024-02-21T01:42:14;25.47;;;12.37;;
22973;SDS011;11653;50.848;4.584;2024-02-21T01:44:40;25.93;;;11.43;;
22973;SDS011;11653;50.848;4.584;2024-02-21T01:47:06;26.13;;;11.87;;
22973;SDS011;11653;50.848;4.584;2024-02-21T01:49:33;27.33;;;12.00;;
22973;SDS011;11653;50.848;4.584;2024-02-21T01:51:58;23.90;;;11.53;;
22973;SDS011;11653;50.848;4.584;2024-02-21T01:54:25;27.57;;;12.20;;
22973;SDS011;11653;50.848;4.584;2024-02-21T01:56:53;28.60;;;11.57;;
22973;SDS011;11653;50.848;4.584;2024-02-21T01:59:19;26.97;;;11.10;;
22973;SDS011;11653;50.848;4.584;2024-02-21T02:01:47;28.37;;;11.63;;
22973;SDS011;11653;50.848;4.584;2024-02-21T02:04:13;27.43;;;12.07;;
22973;SDS011;11653;50.848;4.584;2024-02-21T02:06:39;25.60;;;11.23;;
22973;SDS011;11653;50.848;4.584;2024-02-21T02:09:06;26.03;;;10.93;;
22973;SDS011;11653;50.848;4.584;2024-02-21T02:11:32;28.17;;;11.80;;
22973;SDS011;11653;50.848;4.584;2024-02-21T02:13:58;20.23;;;10.80;;
22973;SDS011;11653;50.848;4.584;2024-02-21T02:16:24;26.77;;;10.73;;
22973;SDS011;11653;50.848;4.584;2024-02-21T02:18:49;23.07;;;11.03;;
22973;SDS011;11653;50.848;4.584;2024-02-21T02:21:21;21.77;;;10.27;;
22973;SDS011;11653;50.848;4.584;2024-02-21T02:23:52;30.17;;;10.97;;
22973;SDS011;11653;50.848;4.584;2024-02-21T02:26:18;24.50;;;10.13;;
22973;SDS011;11653;50.848;4.584;2024-02-21T02:28:44;23.23;;;10.80;;
22973;SDS011;11653;50.848;4.584;2024-02-21T02:31:09;25.40;;;10.57;;
22973;SDS011;11653;50.848;4.584;2024-02-21T02:33:35;26.57;;;9.97;;
22973;SDS011;11653;50.848;4.584;2024-02-21T02:36:00;20.23;;;9.93;;
22973;SDS011;11653;50.848;4.584;2024-02-21T02:38:26;21.43;;;10.03;;
22973;SDS011;11653;50.848;4.584;2024-02-21T02:40:52;24.33;;;10.40;;
22973;SDS011;11653;50.848;4.584;2024-02-21T02:43:17;23.67;;;9.87;;
22973;SDS011;11653;50.848;4.584;2024-02-21T02:45:43;25.20;;;9.60;;
22973;SDS011;11653;50.848;4.584;2024-02-21T02:48:09;24.07;;;10.60;;
22973;SDS011;11653;50.848;4.584;2024-02-21T02:50:34;25.87;;;10.33;;
22973;SDS011;11653;50.848;4.584;2024-02-21T02:53:00;21.47;;;10.57;;
22973;SDS011;11653;50.848;4.584;2024-02-21T02:55:25;23.90;;;9.63;;
22973;SDS011;11653;50.848;4.584;2024-02-21T02:57:51;23.07;;;10.23;;
22973;SDS011;11653;50.848;4.584;2024-02-21T03:00:17;26.07;;;10.40;;
22973;SDS011;11653;50.848;4.584;2024-02-21T03:02:45;23.10;;;9.77;;
22973;SDS011;11653;50.848;4.584;2024-02-21T03:05:14;24.90;;;10.13;;
22973;SDS011;11653;50.848;4.584;2024-02-21T03:07:44;22.63;;;9.97;;
22973;SDS011;11653;50.848;4.584;2024-02-21T03:10:10;22.00;;;9.67;;
22973;SDS011;11653;50.848;4.584;2024-02-21T03:12:36;24.47;;;9.97;;
22973;SDS011;11653;50.848;4.584;2024-02-21T03:15:03;26.87;;;10.43;;
22973;SDS011;11653;50.848;4.584;2024-02-21T03:17:29;22.27;;;10.20;;
22973;SDS011;11653;50.848;4.584;2024-02-21T03:19:55;25.83;;;10.13;;
22973;SDS011;11653;50.848;4.584;2024-02-21T03:22:21;24.37;;;10.83;;
22973;SDS011;11653;50.848;4.584;2024-02-21T03:24:47;22.97;;;10.80;;
22973;SDS011;11653;50.848;4.584;2024-02-21T03:27:13;24.53;;;9.97;;
22973;SDS011;11653;50.848;4.584;2024-02-21T03:29:39;25.50;;;10.63;;
22973;SDS011;11653;50.848;4.584;2024-02-21T03:32:04;21.23;;;10.07;;
22973;SDS011;11653;50.848;4.584;2024-02-21T03:34:30;18.97;;;10.00;;
22973;SDS011;11653;50.848;4.584;2024-02-21T03:36:56;22.03;;;10.13;;
22973;SDS011;11653;50.848;4.584;2024-02-21T03:39:21;23.37;;;9.90;;
22973;SDS011;11653;50.848;4.584;2024-02-21T03:41:47;25.17;;;9.33;;
22973;SDS011;11653;50.848;4.584;2024-02-21T03:44:13;21.03;;;9.83;;
22973;SDS011;11653;50.848;4.584;2024-02-21T03:46:38;24.53;;;10.17;;
22973;SDS011;11653;50.848;4.584;2024-02-21T03:49:04;24.23;;;10.73;;
22973;SDS011;11653;50.848;4.584;2024-02-21T03:51:30;22.17;;;10.60;;
22973;SDS011;11653;50.848;4.584;2024-02-21T03:53:56;25.87;;;10.67;;
22973;SDS011;11653;50.848;4.584;2024-02-21T03:56:21;28.80;;;10.30;;
22973;SDS011;11653;50.848;4.584;2024-02-21T03:58:47;24.00;;;11.00;;
22973;SDS011;11653;50.848;4.584;2024-02-21T04:01:14;22.47;;;10.83;;
22973;SDS011;11653;50.848;4.584;2024-02-21T04:03:40;27.23;;;11.63;;
22973;SDS011;11653;50.848;4.584;2024-02-21T04:06:07;23.00;;;10.57;;
22973;SDS011;11653;50.848;4.584;2024-02-21T04:08:33;22.47;;;10.60;;
22973;SDS011;11653;50.848;4.584;2024-02-21T04:10:58;24.10;;;10.50;;
22973;SDS011;11653;50.848;4.584;2024-02-21T04:13:24;24.40;;;11.07;;
22973;SDS011;11653;50.848;4.584;2024-02-21T04:15:50;28.67;;;11.03;;
22973;SDS011;11653;50.848;4.584;2024-02-21T04:18:16;24.00;;;10.13;;
22973;SDS011;11653;50.848;4.584;2024-02-21T04:20:42;29.30;;;10.43;;
22973;SDS011;11653;50.848;4.584;2024-02-21T04:23:07;23.37;;;10.60;;
22973;SDS011;11653;50.848;4.584;2024-02-21T04:25:33;25.23;;;10.90;;
22973;SDS011;11653;50.848;4.584;2024-02-21T04:27:59;22.20;;;10.43;;
22973;SDS011;11653;50.848;4.584;2024-02-21T04:30:24;23.80;;;10.97;;
22973;SDS011;11653;50.848;4.584;2024-02-21T04:32:50;28.07;;;11.00;;
22973;SDS011;11653;50.848;4.584;2024-02-21T04:35:16;27.07;;;10.73;;
22973;SDS011;11653;50.848;4.584;2024-02-21T04:37:42;28.07;;;10.60;;
22973;SDS011;11653;50.848;4.584;2024-02-21T04:40:07;19.77;;;10.57;;
22973;SDS011;11653;50.848;4.584;2024-02-21T04:42:34;21.13;;;9.97;;
22973;SDS011;11653;50.848;4.584;2024-02-21T04:45:00;19.87;;;10.90;;
22973;SDS011;11653;50.848;4.584;2024-02-21T04:47:26;24.97;;;11.67;;
22973;SDS011;11653;50.848;4.584;2024-02-21T04:49:51;28.60;;;11.10;;
22973;SDS011;11653;50.848;4.584;2024-02-21T04:52:17;26.60;;;10.63;;
22973;SDS011;11653;50.848;4.584;2024-02-21T04:54:43;23.43;;;10.17;;
22973;SDS011;11653;50.848;4.584;2024-02-21T04:57:09;25.63;;;10.67;;
22973;SDS011;11653;50.848;4.584;2024-02-21T04:59:35;21.10;;;9.97;;
22973;SDS011;11653;50.848;4.584;2024-02-21T05:02:01;24.97;;;10.70;;
22973;SDS011;11653;50.848;4.584;2024-02-21T05:04:27;26.57;;;10.40;;
22973;SDS011;11653;50.848;4.584;2024-02-21T05:06:53;20.87;;;10.17;;
22973;SDS011;11653;50.848;4.584;2024-02-21T05:09:19;23.10;;;10.60;;
22973;SDS011;11653;50.848;4.584;2024-02-21T05:11:45;19.63;;;9.60;;
22973;SDS011;11653;50.848;4.584;2024-02-21T05:14:11;17.90;;;10.03;;
22973;SDS011;11653;50.848;4.584;2024-02-21T05:16:38;19.03;;;9.60;;
22973;SDS011;11653;50.848;4.584;2024-02-21T05:19:04;20.10;;;9.70;;
22973;SDS011;11653;50.848;4.584;2024-02-21T05:21:30;20.30;;;9.73;;
22973;SDS011;11653;50.848;4.584;2024-02-21T05:23:56;18.17;;;9.30;;
22973;SDS011;11653;50.848;4.584;2024-02-21T05:26:22;21.87;;;9.57;;
22973;SDS011;11653;50.848;4.584;2024-02-21T05:28:48;23.20;;;10.10;;
22973;SDS011;11653;50.848;4.584;2024-02-21T05:31:15;21.17;;;9.37;;
22973;SDS011;11653;50.848;4.584;2024-02-21T05:33:44;19.40;;;9.77;;
22973;SDS011;11653;50.848;4.584;2024-02-21T05:36:10;18.37;;;9.23;;
22973;SDS011;11653;50.848;4.584;2024-02-21T05:38:36;20.07;;;8.80;;
22973;SDS011;11653;50.848;4.584;2024-02-21T05:41:02;20.10;;;8.77;;
22973;SDS011;11653;50.848;4.584;2024-02-21T05:43:28;19.83;;;9.27;;
22973;SDS011;11653;50.848;4.584;2024-02-21T05:45:54;17.37;;;8.17;;
22973;SDS011;11653;50.848;4.584;2024-02-21T05:48:20;17.73;;;8.50;;
22973;SDS011;11653;50.848;4.584;2024-02-21T05:50:49;15.00;;;7.80;;
22973;SDS011;11653;50.848;4.584;2024-02-21T05:53:15;14.23;;;7.00;;
22973;SDS011;11653;50.848;4.584;2024-02-21T05:55:41;22.20;;;7.80;;
22973;SDS011;11653;50.848;4.584;2024-02-21T05:58:07;14.83;;;7.27;;
22973;SDS011;11653;50.848;4.584;2024-02-21T06:00:36;16.60;;;8.30;;
22973;SDS011;11653;50.848;4.584;2024-02-21T06:03:02;14.13;;;6.90;;
22973;SDS011;11653;50.848;4.584;2024-02-21T06:05:28;15.83;;;7.10;;
22973;SDS011;11653;50.848;4.584;2024-02-21T06:07:54;12.77;;;6.83;;
22973;SDS011;11653;50.848;4.584;2024-02-21T06:10:19;15.83;;;7.10;;
22973;SDS011;11653;50.848;4.584;2024-02-21T06:12:45;13.67;;;7.10;;
22973;SDS011;11653;50.848;4.584;2024-02-21T06:15:10;15.50;;;6.50;;
22973;SDS011;11653;50.848;4.584;2024-02-21T06:17:36;11.90;;;7.07;;
22973;SDS011;11653;50.848;4.584;2024-02-21T06:20:02;13.17;;;6.83;;
22973;SDS011;11653;50.848;4.584;2024-02-21T06:22:28;12.13;;;7.23;;
22973;SDS011;11653;50.848;4.584;2024-02-21T06:24:55;15.63;;;7.10;;
22973;SDS011;11653;50.848;4.584;2024-02-21T06:27:20;13.07;;;5.87;;
22973;SDS011;11653;50.848;4.584;2024-02-21T06:29:46;9.83;;;5.57;;
22973;SDS011;11653;50.848;4.584;2024-02-21T06:32:12;9.53;;;6.23;;
22973;SDS011;11653;50.848;4.584;2024-02-21T06:34:37;11.53;;;6.03;;
22973;SDS011;11653;50.848;4.584;2024-02-21T06:37:03;13.73;;;6.30;;
22973;SDS011;11653;50.848;4.584;2024-02-21T06:39:29;9.50;;;5.50;;
22973;SDS011;11653;50.848;4.584;2024-02-21T06:41:55;11.03;;;6.60;;
22973;SDS011;11653;50.848;4.584;2024-02-21T06:44:23;10.03;;;5.87;;
22973;SDS011;11653;50.848;4.584;2024-02-21T06:46:49;10.57;;;5.90;;
22973;SDS011;11653;50.848;4.584;2024-02-21T06:49:15;10.57;;;5.83;;
22973;SDS011;11653;50.848;4.584;2024-02-21T06:51:44;11.67;;;5.80;;
22973;SDS011;11653;50.848;4.584;2024-02-21T06:54:10;9.87;;;5.90;;
22973;SDS011;11653;50.848;4.584;2024-02-21T06:56:36;11.33;;;6.50;;
22973;SDS011;11653;50.848;4.584;2024-02-21T06:59:02;12.03;;;6.87;;
22973;SDS011;11653;50.848;4.584;2024-02-21T07:01:29;16.27;;;6.90;;
22973;SDS011;11653;50.848;4.584;2024-02-21T07:03:55;11.93;;;6.33;;
22973;SDS011;11653;50.848;4.584;2024-02-21T07:06:21;12.80;;;7.37;;
22973;SDS011;11653;50.848;4.584;2024-02-21T07:08:47;13.67;;;7.27;;
22973;SDS011;11653;50.848;4.584;2024-02-21T07:11:13;16.33;;;8.83;;
22973;SDS011;11653;50.848;4.584;2024-02-21T07:13:38;18.93;;;8.47;;
22973;SDS011;11653;50.848;4.584;2024-02-21T07:16:04;13.53;;;7.63;;
22973;SDS011;11653;50.848;4.584;2024-02-21T07:18:31;14.37;;;8.03;;
22973;SDS011;11653;50.848;4.584;2024-02-21T07:20:56;18.33;;;8.37;;
22973;SDS011;11653;50.848;4.584;2024-02-21T07:23:23;16.90;;;9.70;;
22973;SDS011;11653;50.848;4.584;2024-02-21T07:25:49;14.63;;;9.13;;
22973;SDS011;11653;50.848;4.584;2024-02-21T07:28:14;14.20;;;8.97;;
22973;SDS011;11653;50.848;4.584;2024-02-21T07:30:41;16.23;;;9.67;;
22973;SDS011;11653;50.848;4.584;2024-02-21T07:33:07;17.87;;;9.87;;
22973;SDS011;11653;50.848;4.584;2024-02-21T07:35:32;17.57;;;9.20;;
22973;SDS011;11653;50.848;4.584;2024-02-21T07:37:58;19.07;;;10.03;;
22973;SDS011;11653;50.848;4.584;2024-02-21T07:40:24;18.17;;;9.60;;
22973;SDS011;11653;50.848;4.584;2024-02-21T07:42:49;18.10;;;9.03;;
22973;SDS011;11653;50.848;4.584;2024-02-21T07:45:15;19.83;;;8.67;;
22973;SDS011;11653;50.848;4.584;2024-02-21T07:47:41;17.97;;;9.90;;
22973;SDS011;11653;50.848;4.584;2024-02-21T07:50:07;23.33;;;11.07;;
22973;SDS011;11653;50.848;4.584;2024-02-21T07:52:33;15.20;;;9.77;;
22973;SDS011;11653;50.848;4.584;2024-02-21T07:54:58;17.63;;;9.50;;
22973;SDS011;11653;50.848;4.584;2024-02-21T07:57:24;19.83;;;9.40;;
22973;SDS011;11653;50.848;4.584;2024-02-21T07:59:50;14.53;;;9.23;;
22973;SDS011;11653;50.848;4.584;2024-02-21T08:02:15;14.37;;;9.67;;
22973;SDS011;11653;50.848;4.584;2024-02-21T08:04:41;18.60;;;9.50;;
22973;SDS011;11653;50.848;4.584;2024-02-21T08:07:07;16.33;;;8.57;;
22973;SDS011;11653;50.848;4.584;2024-02-21T08:09:34;17.07;;;8.93;;
22973;SDS011;11653;50.848;4.584;2024-02-21T08:12:01;16.00;;;9.27;;
22973;SDS011;11653;50.848;4.584;2024-02-21T08:14:27;16.77;;;8.50;;
22973;SDS011;11653;50.848;4.584;2024-02-21T08:16:53;17.03;;;9.60;;
22973;SDS011;11653;50.848;4.584;2024-02-21T08:19:20;19.63;;;10.13;;
22973;SDS011;11653;50.848;4.584;2024-02-21T08:21:46;15.87;;;9.40;;
22973;SDS011;11653;50.848;4.584;2024-02-21T08:24:12;14.63;;;9.33;;
22973;SDS011;11653;50.848;4.584;2024-02-21T08:26:43;16.37;;;9.53;;
22973;SDS011;11653;50.848;4.584;2024-02-21T08:29:12;18.23;;;9.40;;
22973;SDS011;11653;50.848;4.584;2024-02-21T08:31:38;21.03;;;8.80;;
22973;SDS011;11653;50.848;4.584;2024-02-21T08:34:04;17.40;;;9.33;;
22973;SDS011;11653;50.848;4.584;2024-02-21T08:36:33;14.83;;;8.27;;
22973;SDS011;11653;50.848;4.584;2024-02-21T08:39:00;21.67;;;9.50;;
22973;SDS011;11653;50.848;4.584;2024-02-21T08:41:30;17.43;;;7.80;;
22973;SDS011;11653;50.848;4.584;2024-02-21T08:43:59;12.73;;;7.23;;
22973;SDS011;11653;50.848;4.584;2024-02-21T08:46:25;12.17;;;7.37;;
22973;SDS011;11653;50.848;4.584;2024-02-21T08:48:51;13.87;;;7.13;;
22973;SDS011;11653;50.848;4.584;2024-02-21T08:51:17;12.93;;;6.70;;
22973;SDS011;11653;50.848;4.584;2024-02-21T08:53:43;17.97;;;6.90;;
22973;SDS011;11653;50.848;4.584;2024-02-21T08:56:10;15.57;;;6.47;;
22973;SDS011;11653;50.848;4.584;2024-02-21T08:58:36;13.77;;;6.63;;
22973;SDS011;11653;50.848;4.584;2024-02-21T09:01:02;11.80;;;5.87;;
22973;SDS011;11653;50.848;4.584;2024-02-21T09:03:32;12.00;;;6.07;;
22973;SDS011;11653;50.848;4.584;2024-02-21T09:05:58;10.77;;;5.17;;
22973;SDS011;11653;50.848;4.584;2024-02-21T09:08:25;11.83;;;5.63;;
22973;SDS011;11653;50.848;4.584;2024-02-21T09:10:51;12.77;;;5.70;;
22973;SDS011;11653;50.848;4.584;2024-02-21T09:13:17;12.07;;;5.73;;
22973;SDS011;11653;50.848;4.584;2024-02-21T09:15:43;15.97;;;5.77;;
22973;SDS011;11653;50.848;4.584;2024-02-21T09:18:09;10.33;;;6.70;;
22973;SDS011;11653;50.848;4.584;2024-02-21T09:20:35;9.77;;;5.40;;
22973;SDS011;11653;50.848;4.584;2024-02-21T09:23:01;10.50;;;5.60;;
22973;SDS011;11653;50.848;4.584;2024-02-21T09:25:27;14.00;;;5.87;;
22973;SDS011;11653;50.848;4.584;2024-02-21T09:27:53;13.57;;;5.80;;
22973;SDS011;11653;50.848;4.584;2024-02-21T09:30:20;10.27;;;5.10;;
22973;SDS011;11653;50.848;4.584;2024-02-21T09:32:46;10.17;;;6.23;;
22973;SDS011;11653;50.848;4.584;2024-02-21T09:35:12;15.17;;;5.87;;
22973;SDS011;11653;50.848;4.584;2024-02-21T09:37:38;12.10;;;6.37;;
22973;SDS011;11653;50.848;4.584;2024-02-21T09:40:04;12.37;;;5.83;;
22973;SDS011;11653;50.848;4.584;2024-02-21T09:42:38;9.70;;;4.83;;
22973;SDS011;11653;50.848;4.584;2024-02-21T09:45:08;10.37;;;5.23;;
22973;SDS011;11653;50.848;4.584;2024-02-21T09:50:26;12.20;;;5.40;;
22973;SDS011;11653;50.848;4.584;2024-02-21T09:52:52;11.80;;;5.27;;
22973;SDS011;11653;50.848;4.584;2024-02-21T09:55:20;12.70;;;4.90;;
22973;SDS011;11653;50.848;4.584;2024-02-21T09:57:47;8.83;;;5.10;;
22973;SDS011;11653;50.848;4.584;2024-02-21T10:00:16;8.97;;;5.20;;
22973;SDS011;11653;50.848;4.584;2024-02-21T10:02:47;7.70;;;5.23;;
22973;SDS011;11653;50.848;4.584;2024-02-21T10:05:14;10.03;;;5.17;;
22973;SDS011;11653;50.848;4.584;2024-02-21T10:07:40;9.20;;;5.30;;
22973;SDS011;11653;50.848;4.584;2024-02-21T10:10:06;12.77;;;5.10;;
22973;SDS011;11653;50.848;4.584;2024-02-21T10:12:33;13.27;;;5.60;;
22973;SDS011;11653;50.848;4.584;2024-02-21T10:15:05;10.60;;;5.53;;
22973;SDS011;11653;50.848;4.584;2024-02-21T10:17:34;9.20;;;5.33;;
22973;SDS011;11653;50.848;4.584;2024-02-21T10:20:10;12.67;;;5.33;;
22973;SDS011;11653;50.848;4.584;2024-02-21T10:22:37;14.83;;;5.17;;
22973;SDS011;11653;50.848;4.584;2024-02-21T10:25:11;9.83;;;5.40;;
22973;SDS011;11653;50.848;4.584;2024-02-21T10:27:40;17.10;;;5.47;;
22973;SDS011;11653;50.848;4.584;2024-02-21T10:30:15;15.43;;;5.30;;
22973;SDS011;11653;50.848;4.584;2024-02-21T10:32:51;13.03;;;5.27;;
22973;SDS011;11653;50.848;4.584;2024-02-21T10:35:27;11.57;;;5.50;;
22973;SDS011;11653;50.848;4.584;2024-02-21T10:37:57;15.07;;;5.30;;
22973;SDS011;11653;50.848;4.584;2024-02-21T10:40:29;11.67;;;5.37;;
22973;SDS011;11653;50.848;4.584;2024-02-21T10:43:02;10.73;;;5.37;;
22973;SDS011;11653;50.848;4.584;2024-02-21T10:45:35;9.80;;;4.90;;
22973;SDS011;11653;50.848;4.584;2024-02-21T10:48:13;13.03;;;4.80;;
22973;SDS011;11653;50.848;4.584;2024-02-21T10:59:00;8.67;;;4.10;;
22973;SDS011;11653;50.848;4.584;2024-02-21T11:01:28;13.20;;;4.73;;
22973;SDS011;11653;50.848;4.584;2024-02-21T11:03:57;11.30;;;4.47;;
22973;SDS011;11653;50.848;4.584;2024-02-21T11:06:26;10.93;;;4.30;;
22973;SDS011;11653;50.848;4.584;2024-02-21T11:09:28;9.87;;;4.07;;
22973;SDS011;11653;50.848;4.584;2024-02-21T11:11:54;10.40;;;4.37;;
22973;SDS011;11653;50.848;4.584;2024-02-21T11:14:25;14.77;;;4.20;;
22973;SDS011;11653;50.848;4.584;2024-02-21T11:16:52;9.57;;;3.63;;
22973;SDS011;11653;50.848;4.584;2024-02-21T11:19:21;12.30;;;3.80;;
22973;SDS011;11653;50.848;4.584;2024-02-21T11:21:49;10.27;;;3.70;;
22973;SDS011;11653;50.848;4.584;2024-02-21T11:24:33;9.03;;;3.67;;
22973;SDS011;11653;50.848;4.584;2024-02-21T11:29:49;7.57;;;3.40;;
22973;SDS011;11653;50.848;4.584;2024-02-21T11:32:19;6.17;;;3.20;;
22973;SDS011;11653;50.848;4.584;2024-02-21T11:34:53;7.20;;;3.47;;
22973;SDS011;11653;50.848;4.584;2024-02-21T11:37:32;8.63;;;3.30;;
22973;SDS011;11653;50.848;4.584;2024-02-21T11:39:59;13.00;;;3.30;;
22973;SDS011;11653;50.848;4.584;2024-02-21T11:42:28;6.03;;;2.83;;
22973;SDS011;11653;50.848;4.584;2024-02-21T11:44:56;7.57;;;3.00;;
22973;SDS011;11653;50.848;4.584;2024-02-21T11:47:22;5.50;;;2.80;;
22973;SDS011;11653;50.848;4.584;2024-02-21T11:49:49;5.53;;;2.83;;
22973;SDS011;11653;50.848;4.584;2024-02-21T11:52:18;5.87;;;3.03;;
22973;SDS011;11653;50.848;4.584;2024-02-21T11:54:50;9.00;;;3.03;;
22973;SDS011;11653;50.848;4.584;2024-02-21T11:57:17;13.43;;;6.20;;
22973;SDS011;11653;50.848;4.584;2024-02-21T11:59:44;5.33;;;3.10;;
22973;SDS011;11653;50.848;4.584;2024-02-21T12:02:11;8.07;;;2.90;;
22973;SDS011;11653;50.848;4.584;2024-02-21T12:04:37;7.20;;;3.10;;
22973;SDS011;11653;50.848;4.584;2024-02-21T12:07:03;8.33;;;3.00;;
22973;SDS011;11653;50.848;4.584;2024-02-21T12:09:29;8.27;;;3.50;;
22973;SDS011;11653;50.848;4.584;2024-02-21T12:14:29;8.17;;;3.27;;
22973;SDS011;11653;50.848;4.584;2024-02-21T12:17:01;9.17;;;3.40;;
22973;SDS011;11653;50.848;4.584;2024-02-21T12:19:30;6.80;;;3.30;;
22973;SDS011;11653;50.848;4.584;2024-02-21T12:21:58;10.03;;;3.23;;
22973;SDS011;11653;50.848;4.584;2024-02-21T12:24:25;9.77;;;3.33;;
22973;SDS011;11653;50.848;4.584;2024-02-21T12:26:52;9.00;;;3.30;;
22973;SDS011;11653;50.848;4.584;2024-02-21T12:29:19;5.57;;;3.60;;
22973;SDS011;11653;50.848;4.584;2024-02-21T12:31:45;8.13;;;3.97;;
22973;SDS011;11653;50.848;4.584;2024-02-21T12:34:11;7.90;;;4.03;;
22973;SDS011;11653;50.848;4.584;2024-02-21T12:36:45;7.30;;;3.40;;
22973;SDS011;11653;50.848;4.584;2024-02-21T12:39:14;9.70;;;3.83;;
22973;SDS011;11653;50.848;4.584;2024-02-21T12:41:40;7.13;;;3.80;;
22973;SDS011;11653;50.848;4.584;2024-02-21T12:44:08;7.13;;;3.67;;
22973;SDS011;11653;50.848;4.584;2024-02-21T12:46:34;8.20;;;4.03;;
22973;SDS011;11653;50.848;4.584;2024-02-21T12:49:00;7.37;;;4.87;;
22973;SDS011;11653;50.848;4.584;2024-02-21T12:51:27;7.87;;;3.50;;
22973;SDS011;11653;50.848;4.584;2024-02-21T12:53:52;7.70;;;3.90;;
22973;SDS011;11653;50.848;4.584;2024-02-21T12:56:18;9.37;;;4.17;;
22973;SDS011;11653;50.848;4.584;2024-02-21T12:58:44;8.20;;;4.20;;
22973;SDS011;11653;50.848;4.584;2024-02-21T13:01:10;6.93;;;3.90;;
22973;SDS011;11653;50.848;4.584;2024-02-21T13:03:36;12.47;;;4.80;;
22973;SDS011;11653;50.848;4.584;2024-02-21T13:06:03;11.70;;;6.77;;
22973;SDS011;11653;50.848;4.584;2024-02-21T13:08:29;10.37;;;5.10;;
22973;SDS011;11653;50.848;4.584;2024-02-21T13:10:54;6.43;;;4.20;;
22973;SDS011;11653;50.848;4.584;2024-02-21T13:13:20;9.73;;;4.07;;
22973;SDS011;11653;50.848;4.584;2024-02-21T13:15:46;7.27;;;4.00;;
22973;SDS011;11653;50.848;4.584;2024-02-21T13:18:11;9.50;;;3.67;;
22973;SDS011;11653;50.848;4.584;2024-02-21T13:20:37;8.90;;;4.20;;
22973;SDS011;11653;50.848;4.584;2024-02-21T13:23:03;9.30;;;3.70;;
22973;SDS011;11653;50.848;4.584;2024-02-21T13:25:29;8.87;;;3.97;;
22973;SDS011;11653;50.848;4.584;2024-02-21T13:27:55;5.70;;;3.53;;
22973;SDS011;11653;50.848;4.584;2024-02-21T13:30:21;6.57;;;3.50;;
22973;SDS011;11653;50.848;4.584;2024-02-21T13:32:47;8.03;;;3.47;;
22973;SDS011;11653;50.848;4.584;2024-02-21T13:35:13;9.40;;;3.93;;
22973;SDS011;11653;50.848;4.584;2024-02-21T13:37:40;8.63;;;3.83;;
22973;SDS011;11653;50.848;4.584;2024-02-21T13:40:06;10.27;;;3.73;;
22973;SDS011;11653;50.848;4.584;2024-02-21T13:42:39;8.77;;;3.93;;
22973;SDS011;11653;50.848;4.584;2024-02-21T13:45:05;5.37;;;3.70;;
22973;SDS011;11653;50.848;4.584;2024-02-21T13:47:32;8.13;;;3.37;;
22973;SDS011;11653;50.848;4.584;2024-02-21T13:49:58;9.77;;;4.93;;
22973;SDS011;11653;50.848;4.584;2024-02-21T13:52:24;8.53;;;4.00;;
22973;SDS011;11653;50.848;4.584;2024-02-21T13:54:51;10.73;;;4.03;;
22973;SDS011;11653;50.848;4.584;2024-02-21T13:57:17;8.17;;;3.40;;
22973;SDS011;11653;50.848;4.584;2024-02-21T13:59:43;13.93;;;4.47;;
22973;SDS011;11653;50.848;4.584;2024-02-21T14:02:09;8.13;;;4.23;;
22973;SDS011;11653;50.848;4.584;2024-02-21T14:04:35;9.93;;;4.10;;
22973;SDS011;11653;50.848;4.584;2024-02-21T14:07:00;8.03;;;4.23;;
22973;SDS011;11653;50.848;4.584;2024-02-21T14:09:26;12.10;;;4.63;;
22973;SDS011;11653;50.848;4.584;2024-02-21T14:11:54;9.30;;;3.57;;
22973;SDS011;11653;50.848;4.584;2024-02-21T14:14:20;7.83;;;4.27;;
22973;SDS011;11653;50.848;4.584;2024-02-21T14:16:46;8.00;;;3.93;;
22973;SDS011;11653;50.848;4.584;2024-02-21T14:19:15;11.10;;;4.77;;
22973;SDS011;11653;50.848;4.584;2024-02-21T14:21:40;12.40;;;4.70;;
22973;SDS011;11653;50.848;4.584;2024-02-21T14:24:06;7.47;;;4.10;;
22973;SDS011;11653;50.848;4.584;2024-02-21T14:26:33;8.30;;;4.50;;
22973;SDS011;11653;50.848;4.584;2024-02-21T14:29:00;10.87;;;4.97;;
22973;SDS011;11653;50.848;4.584;2024-02-21T14:31:28;10.50;;;4.53;;
22973;SDS011;11653;50.848;4.584;2024-02-21T14:33:56;9.87;;;4.50;;
22973;SDS011;11653;50.848;4.584;2024-02-21T14:36:22;9.10;;;4.33;;
22973;SDS011;11653;50.848;4.584;2024-02-21T14:38:49;8.47;;;4.97;;
22973;SDS011;11653;50.848;4.584;2024-02-21T14:41:16;15.33;;;5.23;;
22973;SDS011;11653;50.848;4.584;2024-02-21T14:43:42;10.57;;;4.63;;
22973;SDS011;11653;50.848;4.584;2024-02-21T14:46:08;11.07;;;5.53;;